createdAt,value
2018-04-13T00:00:48.995Z,0.00
2018-04-13T00:01:48.977Z,0.00
2018-04-13T00:02:51.652Z,0.00
2018-04-13T00:03:48.927Z,0.00
2018-04-13T00:04:48.898Z,0.00
2018-04-13T00:05:48.868Z,0.00
2018-04-13T00:06:48.845Z,0.00
2018-04-13T00:07:48.851Z,0.00
2018-04-13T00:08:48.787Z,0.00
2018-04-13T00:09:48.761Z,0.00
2018-04-13T00:10:48.729Z,0.00
2018-04-13T00:11:48.730Z,0.00
2018-04-13T00:12:48.673Z,0.00
2018-04-13T00:13:48.638Z,0.00
2018-04-13T00:14:48.616Z,0.00
2018-04-13T00:15:48.583Z,0.00
2018-04-13T00:16:48.560Z,0.00
2018-04-13T00:17:50.170Z,0.00
2018-04-13T00:18:48.503Z,0.00
2018-04-13T00:19:48.483Z,0.00
2018-04-13T00:20:48.453Z,0.00
2018-04-13T00:21:48.429Z,0.00
2018-04-13T00:22:48.394Z,0.00
2018-04-13T00:23:48.364Z,0.00
2018-04-13T00:24:48.345Z,0.00
2018-04-13T00:25:48.321Z,0.00
2018-04-13T00:26:48.279Z,0.00
2018-04-13T00:27:48.255Z,0.00
2018-04-13T00:28:48.253Z,0.00
2018-04-13T00:29:48.205Z,0.00
2018-04-13T00:30:48.671Z,0.00
2018-04-13T00:31:48.143Z,0.00
2018-04-13T00:32:48.122Z,0.00
2018-04-13T00:33:48.087Z,0.00
2018-04-13T00:34:48.054Z,0.00
2018-04-13T00:35:48.042Z,0.00
2018-04-13T00:36:48.022Z,0.00
2018-04-13T00:37:47.981Z,0.00
2018-04-13T00:38:47.953Z,0.00
2018-04-13T00:39:47.936Z,0.00
2018-04-13T00:40:47.903Z,0.00
2018-04-13T00:41:47.915Z,0.00
2018-04-13T00:42:47.837Z,0.00
2018-04-13T00:43:47.833Z,0.00
2018-04-13T00:44:47.776Z,0.00
2018-04-13T00:45:47.752Z,0.00
2018-04-13T00:46:47.822Z,0.00
2018-04-13T00:47:47.691Z,0.00
2018-04-13T00:48:47.667Z,0.00
2018-04-13T00:49:47.672Z,0.00
2018-04-13T00:50:47.622Z,0.00
2018-04-13T00:51:47.598Z,0.00
2018-04-13T00:52:47.591Z,0.00
2018-04-13T00:53:47.530Z,0.00
2018-04-13T00:54:47.503Z,0.00
2018-04-13T00:55:47.503Z,0.00
2018-04-13T00:56:47.446Z,0.00
2018-04-13T00:57:47.415Z,0.00
2018-04-13T00:58:47.395Z,0.00
2018-04-13T00:59:47.371Z,0.00
2018-04-13T01:00:47.339Z,0.00
2018-04-13T01:01:47.314Z,0.00
2018-04-13T01:02:47.285Z,0.00
2018-04-13T01:03:47.254Z,0.00
2018-04-13T01:04:47.266Z,0.00
2018-04-13T01:05:48.187Z,0.00
2018-04-13T01:06:47.169Z,0.00
2018-04-13T01:07:47.144Z,0.00
2018-04-13T01:08:47.122Z,0.00
2018-04-13T01:09:47.077Z,0.00
2018-04-13T01:10:47.102Z,0.00
2018-04-13T01:11:47.037Z,0.00
2018-04-13T01:12:46.995Z,0.00
2018-04-13T01:13:46.991Z,0.00
2018-04-13T01:14:46.949Z,0.00
2018-04-13T01:15:46.917Z,0.00
2018-04-13T01:16:46.889Z,0.00
2018-04-13T01:17:46.857Z,0.00
2018-04-13T01:18:46.846Z,0.00
2018-04-13T01:19:46.807Z,0.00
2018-04-13T01:20:46.771Z,0.00
2018-04-13T01:21:46.797Z,0.00
2018-04-13T01:22:46.781Z,0.00
2018-04-13T01:23:46.698Z,0.00
2018-04-13T01:24:46.682Z,0.00
2018-04-13T01:25:46.638Z,0.00
2018-04-13T01:26:46.596Z,0.00
2018-04-13T01:27:46.575Z,0.00
2018-04-13T01:28:46.544Z,0.00
2018-04-13T01:29:46.515Z,0.00
2018-04-13T01:30:46.514Z,0.00
2018-04-13T01:31:46.479Z,0.00
2018-04-13T01:32:46.439Z,0.00
2018-04-13T01:33:46.405Z,0.00
2018-04-13T01:34:46.381Z,0.00
2018-04-13T01:35:46.349Z,0.00
2018-04-13T01:36:46.335Z,0.00
2018-04-13T01:37:46.300Z,0.00
2018-04-13T01:38:46.261Z,0.00
2018-04-13T01:39:46.243Z,0.00
2018-04-13T01:40:46.205Z,0.00
2018-04-13T01:41:46.189Z,0.00
2018-04-13T01:42:46.156Z,0.00
2018-04-13T01:43:46.118Z,0.00
2018-04-13T01:44:46.086Z,0.00
2018-04-13T01:45:46.077Z,0.00
2018-04-13T01:46:46.037Z,0.00
2018-04-13T01:47:46.016Z,0.00
2018-04-13T01:48:45.985Z,0.00
2018-04-13T01:49:45.950Z,0.00
2018-04-13T01:50:45.931Z,0.00
2018-04-13T01:51:45.896Z,0.00
2018-04-13T01:52:45.872Z,0.00
2018-04-13T01:53:45.895Z,0.00
2018-04-13T01:54:45.818Z,0.00
2018-04-13T01:55:45.792Z,0.00
2018-04-13T01:56:45.767Z,0.00
2018-04-13T01:57:45.762Z,0.00
2018-04-13T01:58:45.700Z,0.00
2018-04-13T01:59:45.689Z,0.00
2018-04-13T02:00:45.653Z,0.00
2018-04-13T02:01:45.621Z,0.00
2018-04-13T02:02:45.601Z,0.00
2018-04-13T02:03:45.564Z,0.00
2018-04-13T02:04:45.526Z,0.00
2018-04-13T02:05:45.506Z,0.00
2018-04-13T02:06:45.471Z,0.00
2018-04-13T02:07:45.454Z,0.00
2018-04-13T02:08:45.406Z,0.00
2018-04-13T02:09:45.386Z,0.00
2018-04-13T02:10:45.358Z,0.00
2018-04-13T02:11:45.361Z,0.00
2018-04-13T02:12:45.297Z,0.00
2018-04-13T02:13:45.277Z,0.00
2018-04-13T02:14:45.268Z,0.00
2018-04-13T02:15:45.214Z,0.00
2018-04-13T02:16:45.186Z,0.00
2018-04-13T02:17:45.160Z,0.00
2018-04-13T02:18:45.127Z,0.00
2018-04-13T02:19:45.099Z,0.00
2018-04-13T02:20:45.096Z,0.00
2018-04-13T02:21:45.037Z,0.00
2018-04-13T02:22:45.015Z,0.00
2018-04-13T02:23:44.980Z,0.00
2018-04-13T02:24:44.954Z,0.00
2018-04-13T02:25:44.939Z,0.00
2018-04-13T02:26:44.900Z,0.00
2018-04-13T02:27:44.873Z,0.00
2018-04-13T02:28:44.852Z,0.00
2018-04-13T02:29:44.824Z,0.00
2018-04-13T02:30:44.785Z,0.00
2018-04-13T02:31:44.756Z,0.00
2018-04-13T02:32:44.739Z,0.00
2018-04-13T02:33:44.700Z,0.00
2018-04-13T02:34:44.691Z,0.00
2018-04-13T02:35:44.649Z,0.00
2018-04-13T02:36:44.612Z,0.00
2018-04-13T02:37:44.579Z,0.00
2018-04-13T02:38:44.554Z,0.00
2018-04-13T02:39:44.528Z,0.00
2018-04-13T02:40:44.502Z,0.00
2018-04-13T02:41:44.473Z,0.00
2018-04-13T02:42:44.439Z,0.00
2018-04-13T02:43:44.418Z,0.00
2018-04-13T02:44:44.384Z,0.00
2018-04-13T02:45:44.363Z,0.00
2018-04-13T02:46:44.334Z,0.00
2018-04-13T02:47:44.305Z,0.00
2018-04-13T02:48:44.273Z,0.00
2018-04-13T02:49:44.264Z,0.00
2018-04-13T02:50:44.217Z,0.00
2018-04-13T02:51:44.178Z,0.00
2018-04-13T02:52:44.171Z,0.00
2018-04-13T02:53:44.130Z,0.00
2018-04-13T02:54:44.095Z,0.00
2018-04-13T02:55:44.100Z,0.00
2018-04-13T02:56:44.035Z,0.00
2018-04-13T02:57:44.005Z,0.00
2018-04-13T02:58:43.983Z,0.00
2018-04-13T02:59:43.967Z,0.00
2018-04-13T03:00:44.709Z,0.00
2018-04-13T03:01:44.690Z,0.00
2018-04-13T03:02:43.891Z,0.00
2018-04-13T03:03:43.837Z,0.00
2018-04-13T03:04:43.859Z,0.00
2018-04-13T03:05:43.811Z,0.00
2018-04-13T03:06:43.768Z,0.00
2018-04-13T03:07:43.721Z,0.00
2018-04-13T03:08:43.693Z,0.00
2018-04-13T03:09:43.658Z,0.00
2018-04-13T03:10:43.628Z,0.00
2018-04-13T03:11:43.612Z,0.00
2018-04-13T03:12:44.568Z,0.00
2018-04-13T03:13:43.550Z,0.00
2018-04-13T03:14:43.511Z,0.00
2018-04-13T03:15:44.194Z,0.00
2018-04-13T03:16:43.550Z,0.00
2018-04-13T03:17:43.431Z,0.00
2018-04-13T03:18:43.409Z,0.00
2018-04-13T03:19:43.443Z,0.00
2018-04-13T03:20:43.344Z,0.00
2018-04-13T03:21:43.323Z,0.00
2018-04-13T03:22:43.295Z,0.00
2018-04-13T03:23:43.261Z,0.00
2018-04-13T03:24:43.254Z,0.00
2018-04-13T03:25:43.204Z,0.00
2018-04-13T03:26:43.169Z,0.00
2018-04-13T03:27:43.199Z,0.00
2018-04-13T03:28:43.102Z,0.00
2018-04-13T03:29:43.087Z,0.00
2018-04-13T03:30:43.089Z,0.00
2018-04-13T03:31:43.022Z,0.00
2018-04-13T03:32:42.994Z,0.00
2018-04-13T03:33:42.981Z,0.00
2018-04-13T03:34:42.937Z,0.00
2018-04-13T03:35:42.916Z,0.00
2018-04-13T03:36:42.889Z,0.00
2018-04-13T03:37:42.845Z,0.00
2018-04-13T03:38:42.814Z,0.00
2018-04-13T03:39:42.799Z,0.00
2018-04-13T03:40:42.758Z,0.00
2018-04-13T03:41:42.730Z,0.00
2018-04-13T03:42:42.703Z,0.00
2018-04-13T03:43:42.670Z,0.00
2018-04-13T03:44:42.643Z,0.00
2018-04-13T03:45:42.651Z,0.00
2018-04-13T03:46:42.580Z,0.00
2018-04-13T03:47:42.577Z,0.00
2018-04-13T03:48:42.560Z,0.00
2018-04-13T03:49:42.503Z,0.00
2018-04-13T03:50:42.481Z,0.00
2018-04-13T03:51:42.465Z,0.00
2018-04-13T03:52:42.420Z,0.00
2018-04-13T03:53:42.379Z,0.00
2018-04-13T03:54:43.201Z,0.00
2018-04-13T03:55:42.329Z,0.00
2018-04-13T03:56:42.293Z,0.00
2018-04-13T03:57:42.273Z,0.00
2018-04-13T03:58:42.231Z,0.00
2018-04-13T03:59:42.213Z,0.00
2018-04-13T04:00:42.175Z,0.00
2018-04-13T04:01:42.150Z,0.00
2018-04-13T04:02:42.117Z,0.00
2018-04-13T04:03:42.091Z,0.00
2018-04-13T04:04:42.072Z,0.00
2018-04-13T04:05:42.029Z,0.00
2018-04-13T04:06:42.002Z,0.00
2018-04-13T04:07:41.981Z,0.00
2018-04-13T04:08:41.969Z,0.00
2018-04-13T04:09:41.915Z,0.00
2018-04-13T04:10:41.883Z,0.00
2018-04-13T04:11:41.860Z,0.00
2018-04-13T04:12:41.832Z,0.00
2018-04-13T04:13:41.811Z,0.00
2018-04-13T04:14:41.771Z,0.00
2018-04-13T04:15:41.740Z,4.00
2018-04-13T04:16:41.714Z,4.00
2018-04-13T04:17:41.685Z,0.00
2018-04-13T04:18:41.648Z,4.00
2018-04-13T04:19:41.620Z,8.00
2018-04-13T04:20:41.590Z,4.00
2018-04-13T04:21:41.560Z,8.00
2018-04-13T04:22:41.529Z,8.00
2018-04-13T04:23:41.509Z,8.00
2018-04-13T04:24:41.480Z,8.00
2018-04-13T04:25:41.439Z,12.00
2018-04-13T04:26:41.423Z,16.00
2018-04-13T04:27:41.439Z,20.00
2018-04-13T04:28:41.356Z,24.00
2018-04-13T04:29:41.342Z,24.00
2018-04-13T04:30:41.317Z,28.00
2018-04-13T04:31:41.277Z,32.00
2018-04-13T04:32:41.236Z,40.00
2018-04-13T04:33:41.218Z,44.00
2018-04-13T04:34:41.185Z,48.00
2018-04-13T04:35:41.162Z,60.00
2018-04-13T04:36:42.116Z,68.00
2018-04-13T04:37:41.093Z,76.00
2018-04-13T04:38:41.070Z,80.00
2018-04-13T04:39:41.035Z,92.00
2018-04-13T04:40:41.004Z,100.00
2018-04-13T04:41:40.974Z,112.00
2018-04-13T04:42:40.941Z,120.00
2018-04-13T04:43:40.928Z,132.00
2018-04-13T04:44:40.898Z,140.00
2018-04-13T04:45:40.880Z,152.00
2018-04-13T04:46:40.843Z,164.00
2018-04-13T04:47:40.838Z,180.00
2018-04-13T04:48:40.786Z,192.00
2018-04-13T04:49:40.747Z,208.00
2018-04-13T04:50:40.710Z,224.00
2018-04-13T04:51:40.687Z,240.00
2018-04-13T04:52:40.661Z,256.00
2018-04-13T04:53:40.619Z,276.00
2018-04-13T04:54:40.595Z,296.00
2018-04-13T04:55:40.581Z,316.00
2018-04-13T04:56:40.538Z,340.00
2018-04-13T04:57:40.510Z,356.00
2018-04-13T04:58:40.590Z,380.00
2018-04-13T04:59:40.594Z,404.00
2018-04-13T05:00:40.482Z,428.00
2018-04-13T05:01:40.496Z,456.00
2018-04-13T05:02:40.423Z,484.00
2018-04-13T05:03:40.410Z,516.00
2018-04-13T05:04:40.319Z,544.00
2018-04-13T05:05:40.364Z,572.00
2018-04-13T05:06:40.308Z,608.00
2018-04-13T05:07:40.212Z,636.00
2018-04-13T05:08:40.197Z,668.00
2018-04-13T05:09:40.154Z,700.00
2018-04-13T05:10:40.131Z,728.00
2018-04-13T05:11:40.111Z,752.00
2018-04-13T05:12:40.102Z,776.00
2018-04-13T05:13:40.043Z,792.00
2018-04-13T05:14:40.057Z,808.00
2018-04-13T05:15:40.016Z,820.00
2018-04-13T05:16:40.010Z,840.00
2018-04-13T05:17:39.955Z,860.00
2018-04-13T05:18:39.913Z,880.00
2018-04-13T05:19:39.976Z,896.00
2018-04-13T05:20:39.850Z,912.00
2018-04-13T05:21:39.826Z,924.00
2018-04-13T05:22:39.851Z,940.00
2018-04-13T05:23:39.845Z,952.00
2018-04-13T05:24:39.862Z,972.00
2018-04-13T05:25:39.757Z,996.00
2018-04-13T05:26:39.753Z,1016.00
2018-04-13T05:27:39.701Z,1040.00
2018-04-13T05:28:40.283Z,1056.00
2018-04-13T05:29:39.659Z,1080.00
2018-04-13T05:30:39.614Z,1104.00
2018-04-13T05:31:39.584Z,1128.00
2018-04-13T05:32:40.563Z,1152.00
2018-04-13T05:33:39.514Z,1172.00
2018-04-13T05:34:39.492Z,1180.00
2018-04-13T05:35:39.465Z,1180.00
2018-04-13T05:36:39.434Z,1176.00
2018-04-13T05:37:42.256Z,1176.00
2018-04-13T05:38:39.341Z,1176.00
2018-04-13T05:39:39.351Z,1180.00
2018-04-13T05:40:39.362Z,1196.00
2018-04-13T05:41:39.276Z,1212.00
2018-04-13T05:42:39.321Z,1244.00
2018-04-13T05:43:39.286Z,1280.00
2018-04-13T05:44:39.191Z,1328.00
2018-04-13T05:45:40.181Z,1368.00
2018-04-13T05:46:39.145Z,1412.00
2018-04-13T05:47:39.242Z,1456.00
2018-04-13T05:48:39.121Z,1500.00
2018-04-13T05:49:38.999Z,1552.00
2018-04-13T05:50:39.054Z,1604.00
2018-04-13T05:51:39.016Z,1656.00
2018-04-13T05:52:39.002Z,1704.00
2018-04-13T05:53:38.972Z,1760.00
2018-04-13T05:54:38.968Z,1808.00
2018-04-13T05:55:38.937Z,1852.00
2018-04-13T05:56:38.951Z,1892.00
2018-04-13T05:57:38.772Z,1924.00
2018-04-13T05:58:38.730Z,1952.00
2018-04-13T05:59:38.707Z,1980.00
2018-04-13T06:00:38.679Z,2012.00
2018-04-13T06:01:38.654Z,2040.00
2018-04-13T06:02:38.618Z,2072.00
2018-04-13T06:03:38.587Z,2108.00
2018-04-13T06:04:38.558Z,2148.00
2018-04-13T06:05:38.531Z,2188.00
2018-04-13T06:06:38.547Z,2228.00
2018-04-13T06:07:38.471Z,2272.00
2018-04-13T06:08:38.454Z,2312.00
2018-04-13T06:09:38.425Z,2348.00
2018-04-13T06:10:38.398Z,2384.00
2018-04-13T06:11:38.361Z,2420.00
2018-04-13T06:12:38.336Z,2448.00
2018-04-13T06:13:38.308Z,2468.00
2018-04-13T06:14:38.447Z,2492.00
2018-04-13T06:15:38.239Z,2516.00
2018-04-13T06:16:38.210Z,2548.00
2018-04-13T06:17:38.210Z,2588.00
2018-04-13T06:18:38.152Z,2648.00
2018-04-13T06:19:38.147Z,2716.00
2018-04-13T06:20:38.117Z,2792.00
2018-04-13T06:21:38.072Z,2872.00
2018-04-13T06:22:38.044Z,2940.00
2018-04-13T06:23:38.021Z,3008.00
2018-04-13T06:24:37.989Z,3068.00
2018-04-13T06:25:37.952Z,3112.00
2018-04-13T06:26:37.937Z,3156.00
2018-04-13T06:27:37.950Z,3188.00
2018-04-13T06:28:37.900Z,3224.00
2018-04-13T06:29:37.875Z,3256.00
2018-04-13T06:30:37.830Z,3292.00
2018-04-13T06:31:37.788Z,3336.00
2018-04-13T06:32:37.764Z,3384.00
2018-04-13T06:33:37.740Z,3432.00
2018-04-13T06:34:37.698Z,3484.00
2018-04-13T06:35:37.695Z,3528.00
2018-04-13T06:36:37.651Z,3576.00
2018-04-13T06:37:37.621Z,3624.00
2018-04-13T06:38:37.596Z,3672.00
2018-04-13T06:39:37.561Z,3724.00
2018-04-13T06:40:37.533Z,3772.00
2018-04-13T06:41:54.466Z,3820.00
2018-04-13T06:43:42.108Z,3924.00
2018-04-13T06:44:42.205Z,3968.00
2018-04-13T06:46:49.638Z,4052.00
2018-04-13T06:47:48.396Z,4092.00
2018-04-13T06:48:47.993Z,4124.00
2018-04-13T06:49:47.715Z,4152.00
2018-04-13T06:50:47.625Z,4176.00
2018-04-13T06:51:47.547Z,4192.00
2018-04-13T06:52:47.529Z,4204.00
2018-04-13T06:53:47.500Z,4216.00
2018-04-13T06:54:47.511Z,4240.00
2018-04-13T06:55:47.437Z,4252.00
2018-04-13T06:56:48.386Z,4268.00
2018-04-13T06:57:47.380Z,4280.00
2018-04-13T06:58:47.357Z,4292.00
2018-04-13T06:59:47.326Z,4312.00
2018-04-13T07:00:47.307Z,4336.00
2018-04-13T07:01:47.268Z,4372.00
2018-04-13T07:02:47.250Z,4428.00
2018-04-13T07:03:47.224Z,4496.00
2018-04-13T07:04:47.199Z,4576.00
2018-04-13T07:05:47.162Z,4660.00
2018-04-13T07:06:47.135Z,4760.00
2018-04-13T07:07:47.117Z,4872.00
2018-04-13T07:08:47.073Z,4996.00
2018-04-13T07:09:47.074Z,5108.00
2018-04-13T07:10:47.027Z,5216.00
2018-04-13T07:11:46.991Z,5316.00
2018-04-13T07:12:46.971Z,5424.00
2018-04-13T07:13:46.939Z,5532.00
2018-04-13T07:14:46.931Z,5632.00
2018-04-13T07:15:46.896Z,5692.00
2018-04-13T07:16:46.871Z,5748.00
2018-04-13T07:17:46.838Z,5812.00
2018-04-13T07:18:46.812Z,5888.00
2018-04-13T07:19:46.781Z,5948.00
2018-04-13T07:20:46.752Z,6008.00
2018-04-13T07:21:46.727Z,6076.00
2018-04-13T07:22:46.698Z,6136.00
2018-04-13T07:23:46.675Z,6152.00
2018-04-13T07:24:46.646Z,6156.00
2018-04-13T07:25:46.613Z,6168.00
2018-04-13T07:26:46.596Z,6180.00
2018-04-13T07:27:46.566Z,6172.00
2018-04-13T07:28:46.542Z,6192.00
2018-04-13T07:29:46.547Z,6184.00
2018-04-13T07:30:46.483Z,6136.00
2018-04-13T07:31:46.451Z,6136.00
2018-04-13T07:32:46.458Z,6124.00
2018-04-13T07:33:46.410Z,6136.00
2018-04-13T07:34:46.405Z,6112.00
2018-04-13T07:35:46.388Z,6092.00
2018-04-13T07:36:46.332Z,6104.00
2018-04-13T07:37:46.303Z,6156.00
2018-04-13T07:38:46.325Z,6196.00
2018-04-13T07:39:46.257Z,6240.00
2018-04-13T07:40:46.225Z,6280.00
2018-04-13T07:41:46.203Z,6348.00
2018-04-13T07:42:46.765Z,6396.00
2018-04-13T07:43:46.149Z,6436.00
2018-04-13T07:44:46.198Z,6464.00
2018-04-13T07:45:46.089Z,6492.00
2018-04-13T07:46:46.068Z,6448.00
2018-04-13T07:47:46.038Z,6400.00
2018-04-13T07:48:46.002Z,6320.00
2018-04-13T07:49:45.986Z,6280.00
2018-04-13T07:50:45.961Z,6144.00
2018-04-13T07:51:45.933Z,6200.00
2018-04-13T07:52:45.906Z,6292.00
2018-04-13T07:53:45.881Z,6344.00
2018-04-13T07:54:45.844Z,6420.00
2018-04-13T07:55:45.828Z,6516.00
2018-04-13T07:56:45.802Z,6588.00
2018-04-13T07:57:45.767Z,6680.00
2018-04-13T07:58:45.750Z,6808.00
2018-04-13T07:59:45.718Z,6952.00
2018-04-13T08:00:46.319Z,7092.00
2018-04-13T08:01:45.679Z,7224.00
2018-04-13T08:02:45.729Z,7332.00
2018-04-13T08:03:45.632Z,7424.00
2018-04-13T08:04:45.595Z,7460.00
2018-04-13T08:05:45.553Z,7440.00
2018-04-13T08:06:45.536Z,7388.00
2018-04-13T08:07:45.509Z,7272.00
2018-04-13T08:08:45.476Z,7152.00
2018-04-13T08:09:45.450Z,7048.00
2018-04-13T08:10:45.438Z,6924.00
2018-04-13T08:11:45.421Z,6812.00
2018-04-13T08:12:45.433Z,6712.00
2018-04-13T08:13:45.371Z,6636.00
2018-04-13T08:14:45.388Z,6556.00
2018-04-13T08:15:45.296Z,6500.00
2018-04-13T08:16:45.283Z,6448.00
2018-04-13T08:17:45.255Z,6408.00
2018-04-13T08:18:45.297Z,6396.00
2018-04-13T08:19:45.199Z,6380.00
2018-04-13T08:20:45.163Z,6372.00
2018-04-13T08:21:45.166Z,6372.00
2018-04-13T08:22:45.130Z,6348.00
2018-04-13T08:23:45.102Z,6328.00
2018-04-13T08:24:45.092Z,6300.00
2018-04-13T08:25:45.034Z,6264.00
2018-04-13T08:26:45.007Z,6224.00
2018-04-13T08:27:44.987Z,6180.00
2018-04-13T08:28:44.960Z,6152.00
2018-04-13T08:29:44.995Z,6136.00
2018-04-13T08:30:44.928Z,6116.00
2018-04-13T08:31:44.915Z,6112.00
2018-04-13T08:32:44.856Z,6104.00
2018-04-13T08:33:44.862Z,6108.00
2018-04-13T08:34:44.800Z,6116.00
2018-04-13T08:35:44.816Z,6124.00
2018-04-13T08:36:44.785Z,6124.00
2018-04-13T08:37:44.731Z,6120.00
2018-04-13T08:38:44.940Z,6104.00
2018-04-13T08:39:44.671Z,6088.00
2018-04-13T08:40:44.658Z,6076.00
2018-04-13T08:41:44.645Z,6068.00
2018-04-13T08:42:44.613Z,6072.00
2018-04-13T08:43:44.577Z,6076.00
2018-04-13T08:44:44.542Z,6088.00
2018-04-13T08:45:44.585Z,6100.00
2018-04-13T08:46:44.489Z,6120.00
2018-04-13T08:47:44.461Z,6140.00
2018-04-13T08:48:44.516Z,6172.00
2018-04-13T08:49:44.431Z,6192.00
2018-04-13T08:50:44.387Z,6244.00
2018-04-13T08:51:44.369Z,6280.00
2018-04-13T08:52:44.338Z,6336.00
2018-04-13T08:53:44.313Z,6392.00
2018-04-13T08:54:44.305Z,6464.00
2018-04-13T08:55:44.400Z,6544.00
2018-04-13T08:56:44.360Z,6612.00
2018-04-13T08:57:44.385Z,6692.00
2018-04-13T08:58:44.194Z,6792.00
2018-04-13T08:59:44.191Z,6940.00
2018-04-13T09:00:44.340Z,7120.00
2018-04-13T09:01:44.106Z,7332.00
2018-04-13T09:02:44.197Z,7548.00
2018-04-13T09:03:44.124Z,7840.00
2018-04-13T09:04:44.206Z,8148.00
2018-04-13T09:05:44.075Z,8456.00
2018-04-13T09:06:44.090Z,8724.00
2018-04-13T09:07:44.062Z,8928.00
2018-04-13T09:08:44.016Z,9136.00
2018-04-13T09:09:43.903Z,9264.00
2018-04-13T09:10:43.956Z,9352.00
2018-04-13T09:11:43.944Z,9456.00
2018-04-13T09:12:43.825Z,9592.00
2018-04-13T09:13:43.860Z,9760.00
2018-04-13T09:14:43.998Z,9912.00
2018-04-13T09:15:43.755Z,10024.00
2018-04-13T09:16:43.759Z,10108.00
2018-04-13T09:17:43.761Z,10056.00
2018-04-13T09:18:43.678Z,10084.00
2018-04-13T09:19:43.665Z,10080.00
2018-04-13T09:20:43.780Z,10076.00
2018-04-13T09:21:43.598Z,10132.00
2018-04-13T09:22:43.662Z,10180.00
2018-04-13T09:23:43.604Z,10260.00
2018-04-13T09:24:43.533Z,9984.00
2018-04-13T09:25:43.572Z,9736.00
2018-04-13T09:26:43.610Z,9528.00
2018-04-13T09:27:43.542Z,9384.00
2018-04-13T09:28:43.429Z,9472.00
2018-04-13T09:29:43.433Z,9580.00
2018-04-13T09:30:43.379Z,9528.00
2018-04-13T09:31:43.427Z,9356.00
2018-04-13T09:32:43.406Z,9280.00
2018-04-13T09:33:43.295Z,8980.00
2018-04-13T09:34:45.439Z,8676.00
2018-04-13T09:35:43.261Z,8740.00
2018-04-13T09:36:43.276Z,8720.00
2018-04-13T09:37:43.298Z,8816.00
2018-04-13T09:38:43.184Z,8980.00
2018-04-13T09:39:43.280Z,9232.00
2018-04-13T09:40:43.215Z,9096.00
2018-04-13T09:41:43.110Z,9048.00
2018-04-13T09:42:43.197Z,9064.00
2018-04-13T09:43:43.128Z,9140.00
2018-04-13T09:44:43.044Z,9220.00
2018-04-13T09:45:43.051Z,9316.00
2018-04-13T09:46:43.021Z,9400.00
2018-04-13T09:47:42.971Z,9448.00
2018-04-13T09:48:42.982Z,9444.00
2018-04-13T09:49:43.066Z,9364.00
2018-04-13T09:50:42.922Z,9264.00
2018-04-13T09:51:42.890Z,9184.00
2018-04-13T09:52:42.839Z,9084.00
2018-04-13T09:53:42.904Z,9004.00
2018-04-13T09:54:42.966Z,8944.00
2018-04-13T09:55:42.759Z,8852.00
2018-04-13T09:56:42.758Z,8700.00
2018-04-13T09:57:42.848Z,8520.00
2018-04-13T09:58:42.690Z,8332.00
2018-04-13T09:59:42.741Z,8152.00
2018-04-13T10:00:42.640Z,8008.00
2018-04-13T10:01:42.640Z,7872.00
2018-04-13T10:02:42.585Z,7760.00
2018-04-13T10:03:42.643Z,7612.00
2018-04-13T10:04:42.712Z,7488.00
2018-04-13T10:05:42.602Z,7356.00
2018-04-13T10:06:42.614Z,7232.00
2018-04-13T10:07:42.552Z,7076.00
2018-04-13T10:08:42.508Z,6940.00
2018-04-13T10:09:42.587Z,6840.00
2018-04-13T10:10:42.556Z,6716.00
2018-04-13T10:11:42.462Z,6616.00
2018-04-13T10:12:42.555Z,6560.00
2018-04-13T10:13:42.393Z,6544.00
2018-04-13T10:14:42.350Z,6552.00
2018-04-13T10:15:42.354Z,6556.00
2018-04-13T10:16:42.322Z,6564.00
2018-04-13T10:17:42.286Z,6600.00
2018-04-13T10:18:42.231Z,6648.00
2018-04-13T10:19:42.171Z,6700.00
2018-04-13T10:20:42.214Z,6760.00
2018-04-13T10:21:42.255Z,6828.00
2018-04-13T10:22:42.101Z,6908.00
2018-04-13T10:23:42.131Z,6976.00
2018-04-13T10:24:42.112Z,7036.00
2018-04-13T10:25:42.043Z,7068.00
2018-04-13T10:26:42.014Z,7064.00
2018-04-13T10:27:42.040Z,7036.00
2018-04-13T10:28:42.085Z,7036.00
2018-04-13T10:29:42.005Z,7024.00
2018-04-13T10:30:41.908Z,7004.00
2018-04-13T10:31:41.924Z,6952.00
2018-04-13T10:32:41.975Z,6896.00
2018-04-13T10:33:41.822Z,6840.00
2018-04-13T10:34:41.789Z,6804.00
2018-04-13T10:35:41.832Z,6772.00
2018-04-13T10:36:41.763Z,6760.00
2018-04-13T10:37:41.828Z,6768.00
2018-04-13T10:38:41.766Z,6788.00
2018-04-13T10:39:41.665Z,6816.00
2018-04-13T10:40:42.333Z,6848.00
2018-04-13T10:41:41.615Z,6880.00
2018-04-13T10:42:41.757Z,6924.00
2018-04-13T10:43:41.644Z,6988.00
2018-04-13T10:44:41.544Z,7044.00
2018-04-13T10:45:41.560Z,7088.00
2018-04-13T10:46:41.576Z,7080.00
2018-04-13T10:47:41.581Z,7044.00
2018-04-13T10:48:41.511Z,6940.00
2018-04-13T10:49:41.425Z,6824.00
2018-04-13T10:50:41.471Z,6716.00
2018-04-13T10:51:41.418Z,6636.00
2018-04-13T10:52:41.336Z,6600.00
2018-04-13T10:53:41.378Z,6608.00
2018-04-13T10:54:41.353Z,6668.00
2018-04-13T10:55:41.269Z,6756.00
2018-04-13T10:56:41.255Z,6896.00
2018-04-13T10:57:41.286Z,7108.00
2018-04-13T10:58:41.244Z,7384.00
2018-04-13T10:59:41.185Z,7708.00
2018-04-13T11:00:41.187Z,8008.00
2018-04-13T11:01:41.124Z,8304.00
2018-04-13T11:02:41.201Z,8584.00
2018-04-13T11:03:41.100Z,8836.00
2018-04-13T11:04:41.184Z,9020.00
2018-04-13T11:05:41.085Z,9104.00
2018-04-13T11:06:40.996Z,9080.00
2018-04-13T11:07:41.044Z,8964.00
2018-04-13T11:08:41.023Z,8808.00
2018-04-13T11:09:40.918Z,8624.00
2018-04-13T11:10:41.054Z,8452.00
2018-04-13T11:11:40.946Z,8300.00
2018-04-13T11:12:41.009Z,8192.00
2018-04-13T11:13:40.995Z,8124.00
2018-04-13T11:14:40.789Z,8068.00
2018-04-13T11:15:40.898Z,8000.00
2018-04-13T11:16:40.823Z,7928.00
2018-04-13T11:17:40.712Z,7852.00
2018-04-13T11:18:40.757Z,7776.00
2018-04-13T11:19:40.763Z,7724.00
2018-04-13T11:20:40.688Z,7680.00
2018-04-13T11:21:40.631Z,7680.00
2018-04-13T11:22:40.742Z,7708.00
2018-04-13T11:23:40.608Z,7756.00
2018-04-13T11:24:40.537Z,7876.00
2018-04-13T11:25:40.663Z,8044.00
2018-04-13T11:26:40.619Z,8288.00
2018-04-13T11:27:40.461Z,8620.00
2018-04-13T11:28:40.457Z,9076.00
2018-04-13T11:29:40.520Z,9568.00
2018-04-13T11:30:40.391Z,9960.00
2018-04-13T11:31:40.461Z,10324.00
2018-04-13T11:32:40.403Z,10648.00
2018-04-13T11:33:40.329Z,10904.00
2018-04-13T11:34:40.342Z,11160.00
2018-04-13T11:35:40.385Z,11372.00
2018-04-13T11:36:40.267Z,11520.00
2018-04-13T11:37:40.254Z,11532.00
2018-04-13T11:38:40.276Z,11536.00
2018-04-13T11:39:40.165Z,11516.00
2018-04-13T11:40:40.212Z,11396.00
2018-04-13T11:41:40.228Z,11308.00
2018-04-13T11:42:40.092Z,11204.00
2018-04-13T11:43:40.171Z,11080.00
2018-04-13T11:44:40.121Z,10868.00
2018-04-13T11:45:40.029Z,10772.00
2018-04-13T11:46:40.117Z,10764.00
2018-04-13T11:47:40.032Z,10836.00
2018-04-13T11:48:39.998Z,11100.00
2018-04-13T11:49:39.986Z,11564.00
2018-04-13T11:50:39.902Z,11960.00
2018-04-13T11:51:39.929Z,12224.00
2018-04-13T11:52:39.983Z,12328.00
2018-04-13T11:53:39.839Z,12456.00
2018-04-13T11:54:39.867Z,12208.00
2018-04-13T11:55:39.792Z,11888.00
2018-04-13T11:56:39.760Z,11608.00
2018-04-13T11:57:39.805Z,11340.00
2018-04-13T11:58:39.822Z,11060.00
2018-04-13T11:59:39.747Z,10824.00
2018-04-13T12:00:39.694Z,10616.00
2018-04-13T12:01:39.689Z,10496.00
2018-04-13T12:02:39.652Z,10428.00
2018-04-13T12:03:39.627Z,10436.00
2018-04-13T12:04:39.690Z,10500.00
2018-04-13T12:05:39.607Z,10584.00
2018-04-13T12:06:39.560Z,10680.00
2018-04-13T12:07:39.669Z,10752.00
2018-04-13T12:08:39.511Z,10828.00
2018-04-13T12:09:39.546Z,10928.00
2018-04-13T12:10:39.559Z,11008.00
2018-04-13T12:11:39.441Z,10972.00
2018-04-13T12:12:39.451Z,10832.00
2018-04-13T12:13:39.416Z,10732.00
2018-04-13T12:14:39.342Z,10556.00
2018-04-13T12:15:39.416Z,10396.00
2018-04-13T12:16:39.287Z,10216.00
2018-04-13T12:17:39.306Z,10028.00
2018-04-13T12:18:39.338Z,9824.00
2018-04-13T12:19:39.229Z,9584.00
2018-04-13T12:20:39.376Z,9248.00
2018-04-13T12:21:39.179Z,8784.00
2018-04-13T12:22:39.388Z,8252.00
2018-04-13T12:23:39.134Z,7720.00
2018-04-13T12:24:39.155Z,7236.00
2018-04-13T12:25:39.132Z,6824.00
2018-04-13T12:26:39.190Z,6524.00
2018-04-13T12:27:39.074Z,6304.00
2018-04-13T12:28:39.093Z,6140.00
2018-04-13T12:29:38.988Z,6020.00
2018-04-13T12:30:39.089Z,5956.00
2018-04-13T12:31:39.001Z,5948.00
2018-04-13T12:32:38.920Z,5976.00